createdAt,value
2023-05-24T00:03:12.911Z,10.97
2023-05-24T00:05:41.833Z,10.97
2023-05-24T00:08:23.556Z,10.98
2023-05-24T00:10:52.018Z,10.99
2023-05-24T00:13:20.216Z,11.00
2023-05-24T00:15:50.994Z,11.03
2023-05-24T00:18:22.401Z,11.06
2023-05-24T00:20:52.166Z,11.08
2023-05-24T00:23:20.900Z,11.10
2023-05-24T00:26:12.513Z,11.13
2023-05-24T00:28:52.461Z,11.15
2023-05-24T00:31:43.937Z,11.17
2023-05-24T00:34:23.404Z,11.19
2023-05-24T00:36:52.197Z,11.22
2023-05-24T00:39:23.767Z,11.23
2023-05-24T00:41:55.674Z,11.24
2023-05-24T00:44:24.137Z,11.24
2023-05-24T00:47:02.721Z,11.24
2023-05-24T00:49:46.933Z,11.22
2023-05-24T00:52:15.719Z,11.21
2023-05-24T00:54:44.490Z,11.18
2023-05-24T00:57:16.728Z,11.15
2023-05-24T00:59:49.052Z,11.13
2023-05-24T01:02:20.956Z,11.11
2023-05-24T01:04:49.899Z,11.09
2023-05-24T01:07:39.910Z,11.07
2023-05-24T01:10:46.882Z,11.05
2023-05-24T01:13:36.501Z,11.01
2023-05-24T01:16:32.156Z,10.98
2023-05-24T01:19:13.117Z,10.95
2023-05-24T01:22:12.128Z,10.91
2023-05-24T01:24:56.245Z,10.89
2023-05-24T01:27:28.354Z,10.88
2023-05-24T01:29:58.242Z,10.87
2023-05-24T01:32:29.192Z,10.87
2023-05-24T01:34:57.549Z,10.88
2023-05-24T01:37:28.214Z,10.88
2023-05-24T01:39:57.270Z,10.89
2023-05-24T01:42:41.782Z,10.89
2023-05-24T01:46:09.830Z,10.89
2023-05-24T01:48:57.335Z,10.89
2023-05-24T01:51:45.628Z,10.89
2023-05-24T01:54:28.476Z,10.88
2023-05-24T01:56:59.145Z,10.87
2023-05-24T01:59:30.471Z,10.85
2023-05-24T02:02:02.061Z,10.83
2023-05-24T02:04:31.250Z,10.77
2023-05-24T02:07:02.404Z,10.73
2023-05-24T02:09:30.906Z,10.68
2023-05-24T02:12:26.474Z,10.64
2023-05-24T02:15:24.985Z,10.59
2023-05-24T02:17:54.800Z,10.56
2023-05-24T02:20:37.839Z,10.54
2023-05-24T02:23:26.523Z,10.51
2023-05-24T02:25:57.470Z,10.49
2023-05-24T02:28:45.673Z,10.46
2023-05-24T02:31:17.387Z,10.43
2023-05-24T02:33:46.365Z,10.38
2023-05-24T02:36:17.132Z,10.35
2023-05-24T02:38:45.829Z,10.31
2023-05-24T02:41:18.120Z,10.29
2023-05-24T02:44:01.249Z,10.25
2023-05-24T02:46:41.551Z,10.21
2023-05-24T02:49:24.301Z,10.18
2023-05-24T02:52:18.498Z,10.14
2023-05-24T02:54:52.530Z,10.10
2023-05-24T02:57:26.813Z,10.07
2023-05-24T03:00:00.458Z,10.05
2023-05-24T03:02:41.626Z,10.03
2023-05-24T03:05:10.109Z,10.02
2023-05-24T03:07:38.878Z,10.00
2023-05-24T03:10:10.914Z,10.00
2023-05-24T03:12:41.713Z,10.00
2023-05-24T03:15:10.499Z,10.01
2023-05-24T03:17:38.630Z,10.00
2023-05-24T03:20:08.070Z,10.00
2023-05-24T03:22:36.494Z,10.01
2023-05-24T03:25:09.861Z,10.03
2023-05-24T03:27:38.163Z,10.06
2023-05-24T03:30:07.886Z,10.10
2023-05-24T03:32:41.169Z,10.14
2023-05-24T03:35:12.250Z,10.21
2023-05-24T03:37:41.024Z,10.27
2023-05-24T03:40:10.574Z,10.34
2023-05-24T03:42:59.995Z,10.42
2023-05-24T03:45:55.383Z,10.52
2023-05-24T03:48:23.892Z,10.59
2023-05-24T03:50:52.717Z,10.69
2023-05-24T03:53:23.087Z,10.79
2023-05-24T03:55:54.387Z,10.88
2023-05-24T03:58:23.490Z,10.99
2023-05-24T04:00:51.786Z,11.09
2023-05-24T04:03:20.225Z,11.22
2023-05-24T04:05:49.092Z,11.35
2023-05-24T04:08:17.937Z,11.50
2023-05-24T04:10:46.144Z,11.65
2023-05-24T04:13:16.978Z,11.82
2023-05-24T04:15:45.082Z,12.00
2023-05-24T04:18:13.513Z,12.19
2023-05-24T04:20:42.095Z,12.39
2023-05-24T04:23:31.084Z,12.62
2023-05-24T04:25:59.364Z,12.85
2023-05-24T04:28:27.690Z,13.09
2023-05-24T04:30:59.060Z,13.35
2023-05-24T04:33:28.179Z,13.62
2023-05-24T04:35:56.273Z,13.88
2023-05-24T04:38:25.149Z,14.13
2023-05-24T04:40:53.207Z,14.41
2023-05-24T04:43:21.485Z,14.72
2023-05-24T04:45:49.792Z,15.06
2023-05-24T04:48:18.605Z,15.65
2023-05-24T04:50:47.750Z,16.71
2023-05-24T04:53:15.847Z,17.91
2023-05-24T04:55:44.222Z,19.34
2023-05-24T04:58:12.491Z,20.74
2023-05-24T05:00:40.965Z,21.94
2023-05-24T05:03:10.614Z,22.60
2023-05-24T05:05:38.954Z,22.41
2023-05-24T05:08:07.166Z,22.22
2023-05-24T05:10:36.233Z,22.13
2023-05-24T05:13:04.768Z,22.10
2023-05-24T05:15:32.988Z,22.34
2023-05-24T05:18:01.216Z,22.72
2023-05-24T05:20:30.205Z,22.88
2023-05-24T05:22:58.441Z,22.99
2023-05-24T06:06:50.130Z,22.79
2023-05-24T06:09:18.127Z,22.60
2023-05-24T06:11:46.315Z,22.66
2023-05-24T06:14:20.008Z,22.81
2023-05-24T06:16:48.619Z,23.03
2023-05-24T06:19:17.031Z,23.24
2023-05-24T06:21:48.602Z,23.44
2023-05-24T06:24:21.454Z,23.66
2023-05-24T06:26:51.277Z,23.88
2023-05-24T06:29:22.836Z,24.09
2023-05-24T06:31:51.435Z,24.27
2023-05-24T06:34:21.700Z,24.42
2023-05-24T06:36:51.478Z,24.61
2023-05-24T06:39:19.989Z,24.79
2023-05-24T06:41:51.123Z,24.93
2023-05-24T06:44:25.325Z,25.07
2023-05-24T06:46:53.608Z,25.19
2023-05-24T06:49:22.549Z,25.32
2023-05-24T06:51:50.543Z,25.48
2023-05-24T06:54:18.753Z,25.62
2023-05-24T06:56:46.615Z,25.57
2023-05-24T06:59:14.707Z,25.64
2023-05-24T07:01:44.135Z,25.86
2023-05-24T07:04:12.325Z,26.02
2023-05-24T07:06:40.400Z,26.27
2023-05-24T07:09:10.606Z,26.53
2023-05-24T07:11:38.531Z,26.71
2023-05-24T07:14:06.700Z,26.84
2023-05-24T07:16:34.950Z,27.01
2023-05-24T07:19:04.843Z,27.17
2023-05-24T07:21:33.220Z,27.32
2023-05-24T07:24:03.994Z,27.44
2023-05-24T07:26:31.957Z,27.59
2023-05-24T07:28:59.923Z,27.63
2023-05-24T07:31:31.470Z,27.61
2023-05-24T07:33:59.461Z,27.59
2023-05-24T07:36:30.483Z,27.60
2023-05-24T07:39:04.664Z,27.50
2023-05-24T07:41:33.560Z,27.25
2023-05-24T07:44:01.938Z,27.00
2023-05-24T07:46:29.951Z,26.94
2023-05-24T07:48:58.499Z,26.95
2023-05-24T07:51:26.635Z,27.10
2023-05-24T07:53:54.907Z,27.25
2023-05-24T07:56:23.812Z,27.38
2023-05-24T07:58:52.040Z,27.52
2023-05-24T08:01:20.034Z,27.66
2023-05-24T08:03:48.663Z,27.69
2023-05-24T08:06:16.713Z,27.68
2023-05-24T08:08:45.962Z,27.76
2023-05-24T08:11:14.180Z,27.93
2023-05-24T08:13:42.260Z,28.05
2023-05-24T08:16:10.395Z,28.20
2023-05-24T08:18:38.544Z,28.34
2023-05-24T08:21:06.883Z,28.49
2023-05-24T08:23:35.182Z,28.52
2023-05-24T08:26:03.120Z,28.47
2023-05-24T08:28:31.172Z,28.35
2023-05-24T08:30:59.504Z,28.23
2023-05-24T08:33:29.133Z,28.26
2023-05-24T08:35:57.232Z,28.37
2023-05-24T08:38:25.359Z,28.46
2023-05-24T08:40:53.552Z,28.56
2023-05-24T08:43:22.945Z,28.69
2023-05-24T08:45:52.627Z,28.86
2023-05-24T08:48:21.158Z,29.00
2023-05-24T08:50:49.351Z,29.08
2023-05-24T08:53:19.147Z,29.12
2023-05-24T08:55:48.587Z,29.11
2023-05-24T08:58:17.002Z,28.82
2023-05-24T09:00:45.763Z,28.49
2023-05-24T09:03:14.317Z,28.29
2023-05-24T09:05:42.896Z,28.17
2023-05-24T09:08:13.493Z,27.97
2023-05-24T09:10:54.133Z,27.50
2023-05-24T09:13:25.299Z,27.04
2023-05-24T09:15:53.819Z,26.77
2023-05-24T09:18:22.394Z,26.66
2023-05-24T09:20:51.448Z,26.61
2023-05-24T09:23:19.732Z,26.54
2023-05-24T09:25:48.636Z,26.46
2023-05-24T09:28:18.463Z,26.35
2023-05-24T09:30:58.874Z,26.19
2023-05-24T09:33:34.924Z,25.90
2023-05-24T09:36:04.641Z,25.45
2023-05-24T09:38:33.352Z,24.98
2023-05-24T09:41:08.687Z,24.56
2023-05-24T09:43:49.755Z,24.21
2023-05-24T09:46:19.929Z,23.89
2023-05-24T09:48:58.403Z,23.56
2023-05-24T09:51:27.027Z,23.31
2023-05-24T09:54:02.144Z,23.16
2023-05-24T09:56:32.789Z,22.98
2023-05-24T09:59:07.288Z,22.87
2023-05-24T10:01:36.370Z,22.81
2023-05-24T10:04:09.424Z,22.77
2023-05-24T10:06:39.298Z,22.70
2023-05-24T10:09:09.791Z,22.68
2023-05-24T10:11:37.703Z,22.72
2023-05-24T10:14:07.612Z,22.77
2023-05-24T10:16:38.024Z,22.88
2023-05-24T10:19:07.278Z,23.04
2023-05-24T10:21:40.094Z,23.11
2023-05-24T10:24:11.298Z,23.13
2023-05-24T10:26:40.699Z,23.14
2023-05-24T10:29:16.949Z,23.17
2023-05-24T10:31:46.717Z,23.19
2023-05-24T10:34:15.601Z,23.25
2023-05-24T10:36:44.868Z,23.27
2023-05-24T10:39:13.015Z,23.28
2023-05-24T10:41:42.168Z,23.30
2023-05-24T10:44:12.351Z,23.30
2023-05-24T10:47:02.577Z,23.36
2023-05-24T10:49:31.385Z,23.47
2023-05-24T10:52:08.378Z,23.64
2023-05-24T10:54:39.768Z,23.78
2023-05-24T10:57:10.920Z,23.88
2023-05-24T10:59:39.743Z,23.92
2023-05-24T11:02:16.453Z,23.88
2023-05-24T11:04:49.260Z,23.68
2023-05-24T11:07:19.482Z,23.13
2023-05-24T11:09:53.173Z,22.24
2023-05-24T11:12:21.527Z,21.30
2023-05-24T11:14:51.520Z,20.52
2023-05-24T11:17:22.410Z,19.76
2023-05-24T11:19:53.322Z,19.18
2023-05-24T11:22:25.487Z,18.61
2023-05-24T11:24:53.774Z,18.26
2023-05-24T11:27:22.246Z,17.90
2023-05-24T11:29:50.424Z,17.47
2023-05-24T11:32:21.912Z,17.15
2023-05-24T11:34:51.126Z,16.88
2023-05-24T11:37:19.597Z,16.68
2023-05-24T11:39:54.544Z,16.47
2023-05-24T11:42:23.711Z,16.22
2023-05-24T11:44:51.678Z,15.94
2023-05-24T11:47:21.847Z,15.77
2023-05-24T11:49:51.458Z,15.59
2023-05-24T11:52:19.645Z,15.42
2023-05-24T11:54:48.544Z,15.35
2023-05-24T11:57:22.002Z,15.25
2023-05-24T11:59:50.430Z,15.21
2023-05-24T12:02:19.821Z,15.22
2023-05-24T12:04:47.950Z,15.21
2023-05-24T12:07:17.890Z,15.22
2023-05-24T12:09:46.821Z,15.17
2023-05-24T12:12:14.878Z,15.20
2023-05-24T12:14:42.788Z,15.23
2023-05-24T12:17:17.874Z,15.27
2023-05-24T12:19:50.317Z,15.30
2023-05-24T12:22:18.356Z,15.30
2023-05-24T12:24:50.708Z,15.30
2023-05-24T12:27:18.872Z,15.28
2023-05-24T12:29:48.992Z,15.22
2023-05-24T12:32:17.752Z,15.16
2023-05-24T12:34:46.050Z,15.09
2023-05-24T12:37:15.049Z,15.01
2023-05-24T12:39:44.280Z,14.93
2023-05-24T12:42:16.201Z,14.91
2023-05-24T12:44:45.253Z,14.94
2023-05-24T12:47:13.506Z,14.98
2023-05-24T12:49:41.470Z,15.00
2023-05-24T12:52:09.530Z,15.06
2023-05-24T12:54:37.566Z,15.11
2023-05-24T12:57:06.305Z,15.13
2023-05-24T12:59:35.086Z,15.17
2023-05-24T13:02:03.445Z,15.19
2023-05-24T13:04:33.823Z,15.21
2023-05-24T13:07:03.353Z,15.25
2023-05-24T13:09:31.580Z,15.29
2023-05-24T13:11:59.517Z,15.31
2023-05-24T13:14:27.872Z,15.30
2023-05-24T13:16:55.868Z,15.32
2023-05-24T13:19:24.038Z,15.38
2023-05-24T13:21:52.517Z,15.43
2023-05-24T13:24:20.957Z,15.51
2023-05-24T13:26:50.074Z,15.61
2023-05-24T13:29:34.260Z,15.73
2023-05-24T13:32:08.002Z,15.87
2023-05-24T13:34:37.053Z,16.03
2023-05-24T13:37:05.400Z,16.17
2023-05-24T13:39:35.340Z,16.28
2023-05-24T13:42:03.385Z,16.39
2023-05-24T13:44:32.555Z,16.51
2023-05-24T13:47:00.628Z,16.65
2023-05-24T13:49:29.115Z,16.77
2023-05-24T13:51:58.583Z,16.90
2023-05-24T13:54:27.772Z,17.00
2023-05-24T13:56:57.633Z,17.10
2023-05-24T13:59:27.164Z,17.16
2023-05-24T14:01:55.217Z,17.23
2023-05-24T14:04:23.457Z,17.28
2023-05-24T14:06:51.491Z,17.35
2023-05-24T14:09:21.478Z,17.42
2023-05-24T14:11:49.687Z,17.48
2023-05-24T14:16:51.734Z,17.62
2023-05-24T14:19:19.810Z,17.70
2023-05-24T14:21:47.829Z,17.80
2023-05-24T14:24:15.900Z,17.89
2023-05-24T14:26:43.886Z,17.98
2023-05-24T14:29:11.989Z,18.06
2023-05-24T14:31:42.852Z,18.12
2023-05-24T14:34:11.664Z,18.23
2023-05-24T14:36:41.610Z,18.35
2023-05-24T14:39:09.570Z,18.42
2023-05-24T14:41:37.766Z,18.52
2023-05-24T14:44:05.831Z,18.60
2023-05-24T14:46:33.880Z,18.63
2023-05-24T14:49:02.575Z,18.70
2023-05-24T14:51:30.606Z,18.79
2023-05-24T14:53:58.624Z,18.91
2023-05-24T14:56:27.619Z,19.03
2023-05-24T14:58:55.635Z,19.14
2023-05-24T15:01:23.804Z,19.23
2023-05-24T15:03:52.091Z,19.35
2023-05-24T15:06:20.052Z,19.44
2023-05-24T15:08:48.102Z,19.50
2023-05-24T15:11:17.657Z,19.53
2023-05-24T15:13:46.165Z,19.54
2023-05-24T15:16:14.183Z,19.56
2023-05-24T15:18:42.188Z,19.52
2023-05-24T15:21:10.492Z,19.53
2023-05-24T15:23:38.537Z,19.55
2023-05-24T15:26:06.595Z,19.56
2023-05-24T15:28:34.491Z,19.54
2023-05-24T15:31:03.768Z,19.56
2023-05-24T15:33:32.899Z,19.55
2023-05-24T15:36:00.926Z,19.56
2023-05-24T15:38:28.829Z,19.54
2023-05-24T15:40:56.693Z,19.49
2023-05-24T15:43:24.958Z,19.46
2023-05-24T15:45:53.666Z,19.43
2023-05-24T15:48:22.797Z,19.38
2023-05-24T15:53:22.880Z,19.21
2023-05-24T15:55:51.834Z,19.18
2023-05-24T15:58:20.080Z,19.13
2023-05-24T16:00:48.026Z,19.07
2023-05-24T16:03:16.257Z,19.04
2023-05-24T16:05:44.517Z,18.95
2023-05-24T16:08:13.305Z,18.88
2023-05-24T16:10:41.531Z,18.80
2023-05-24T16:13:10.578Z,18.73
2023-05-24T16:15:40.948Z,18.65
2023-05-24T16:18:09.009Z,18.58
2023-05-24T16:20:37.259Z,18.53
2023-05-24T16:23:05.471Z,18.50
2023-05-24T16:25:33.485Z,18.47
2023-05-24T16:28:01.483Z,18.43
2023-05-24T16:30:29.763Z,18.40
2023-05-24T16:32:57.771Z,18.36
2023-05-24T16:35:25.809Z,18.30
2023-05-24T16:37:55.927Z,18.24
2023-05-24T16:40:23.871Z,18.19
2023-05-24T16:42:53.744Z,18.14
2023-05-24T16:45:21.905Z,18.09
2023-05-24T16:47:50.099Z,18.04
2023-05-24T16:50:18.264Z,18.00
2023-05-24T16:52:46.195Z,17.96
2023-05-24T16:55:16.008Z,17.92
2023-05-24T16:57:44.106Z,17.89
2023-05-24T17:00:12.661Z,17.86
2023-05-24T17:02:40.853Z,17.86
2023-05-24T17:05:09.569Z,17.84
2023-05-24T17:07:37.948Z,17.82
2023-05-24T17:10:06.903Z,17.80
2023-05-24T17:12:35.621Z,17.76
2023-05-24T17:15:05.329Z,17.74
2023-05-24T17:17:33.310Z,17.71
2023-05-24T17:20:01.516Z,17.67
2023-05-24T17:22:29.934Z,17.64
2023-05-24T17:24:57.789Z,17.61
2023-05-24T17:27:25.860Z,17.57
2023-05-24T17:29:54.030Z,17.54
2023-05-24T17:32:22.223Z,17.51
2023-05-24T17:34:50.320Z,17.48
2023-05-24T17:37:18.535Z,17.44
2023-05-24T17:39:46.803Z,17.42
2023-05-24T17:42:14.911Z,17.39
2023-05-24T17:44:43.702Z,17.35
2023-05-24T17:47:11.907Z,17.30
2023-05-24T17:49:40.074Z,17.23
2023-05-24T17:52:08.057Z,17.19
2023-05-24T17:54:36.333Z,17.14
2023-05-24T17:57:04.771Z,17.10
2023-05-24T17:59:33.616Z,17.04
2023-05-24T18:02:01.525Z,16.98
2023-05-24T18:04:30.365Z,16.93
2023-05-24T18:06:58.486Z,16.88
2023-05-24T18:09:27.515Z,16.82
2023-05-24T18:11:55.351Z,16.76
2023-05-24T18:14:23.567Z,16.71
2023-05-24T18:16:51.690Z,16.66
2023-05-24T18:19:20.596Z,16.61
2023-05-24T18:21:49.217Z,16.57
2023-05-24T18:24:17.185Z,16.52
2023-05-24T18:26:47.286Z,16.48
2023-05-24T18:29:15.657Z,16.44
2023-05-24T18:31:44.056Z,16.40
2023-05-24T18:34:12.512Z,16.36
2023-05-24T18:36:40.431Z,16.31
2023-05-24T18:39:08.321Z,16.26
2023-05-24T18:41:36.275Z,16.20
2023-05-24T18:44:04.142Z,16.15
2023-05-24T18:46:33.281Z,16.10
2023-05-24T18:49:03.138Z,16.05
2023-05-24T18:51:31.227Z,16.00
2023-05-24T18:53:59.198Z,15.94
2023-05-24T18:56:28.235Z,15.90
2023-05-24T18:58:58.779Z,15.86
2023-05-24T19:01:28.285Z,15.82
2023-05-24T19:03:56.427Z,15.79
2023-05-24T19:06:24.376Z,15.74
2023-05-24T19:08:52.615Z,15.71
2023-05-24T19:11:21.250Z,15.68
2023-05-24T19:13:49.070Z,15.64
2023-05-24T19:16:18.347Z,15.60
2023-05-24T19:18:46.500Z,15.57
2023-05-24T19:21:15.018Z,15.54
2023-05-24T19:23:43.054Z,15.50
2023-05-24T19:26:11.300Z,15.47
2023-05-24T19:28:41.659Z,15.43
2023-05-24T19:31:09.999Z,15.40
2023-05-24T19:33:48.532Z,15.37
2023-05-24T19:36:25.906Z,15.33
2023-05-24T19:38:54.925Z,15.30
2023-05-24T19:41:22.995Z,15.26
2023-05-24T19:43:51.025Z,15.23
2023-05-24T19:46:19.108Z,15.20
2023-05-24T19:48:47.186Z,15.15
2023-05-24T19:51:15.794Z,15.12
2023-05-24T19:53:44.390Z,15.09
2023-05-24T19:56:12.357Z,15.07
2023-05-24T19:58:40.426Z,15.05
2023-05-24T20:01:08.599Z,15.01
2023-05-24T20:03:36.652Z,14.99
2023-05-24T20:06:04.723Z,14.96
2023-05-24T20:08:32.657Z,14.94
2023-05-24T20:11:00.616Z,14.93
2023-05-24T20:13:28.900Z,14.90
2023-05-24T20:15:57.190Z,14.88
2023-05-24T20:18:25.299Z,14.85
2023-05-24T20:20:55.227Z,14.81
2023-05-24T20:23:27.489Z,14.80
2023-05-24T20:25:58.279Z,14.77
2023-05-24T20:28:31.276Z,14.75
2023-05-24T20:30:59.953Z,14.74
2023-05-24T20:33:27.997Z,14.72
2023-05-24T20:35:56.241Z,14.70
2023-05-24T20:38:24.450Z,14.69
2023-05-24T20:40:52.386Z,14.68
2023-05-24T20:43:20.660Z,14.67
2023-05-24T20:45:48.642Z,14.67
2023-05-24T20:48:16.704Z,14.65
2023-05-24T20:50:44.706Z,14.63
2023-05-24T20:53:12.755Z,14.64
2023-05-24T20:55:40.852Z,14.64
2023-05-24T20:58:08.905Z,14.64
2023-05-24T21:00:39.510Z,14.64
2023-05-24T21:03:08.001Z,14.64
2023-05-24T21:05:38.102Z,14.63
2023-05-24T21:08:06.595Z,14.63
2023-05-24T21:10:35.584Z,14.62
2023-05-24T21:13:03.796Z,14.61
2023-05-24T21:15:31.906Z,14.60
2023-05-24T21:17:59.888Z,14.60
2023-05-24T21:20:28.188Z,14.59
2023-05-24T21:22:56.441Z,14.58
2023-05-24T21:25:24.602Z,14.58
2023-05-24T21:27:52.499Z,14.57
2023-05-24T21:30:20.388Z,14.56
2023-05-24T21:32:48.448Z,14.55
2023-05-24T21:35:16.716Z,14.54
2023-05-24T21:37:45.084Z,14.54
2023-05-24T21:40:13.170Z,14.53
2023-05-24T21:42:41.438Z,14.53
2023-05-24T21:45:09.784Z,14.53
2023-05-24T21:47:37.942Z,14.51
2023-05-24T21:50:06.563Z,14.50
2023-05-24T21:52:34.926Z,14.49
2023-05-24T21:55:02.902Z,14.47
2023-05-24T21:57:30.908Z,14.46
2023-05-24T21:59:59.033Z,14.45
2023-05-24T22:02:26.940Z,14.44
2023-05-24T22:04:55.203Z,14.44
2023-05-24T22:07:23.138Z,14.43
2023-05-24T22:09:51.422Z,14.42
2023-05-24T22:12:19.345Z,14.41
2023-05-24T22:14:47.334Z,14.40
2023-05-24T22:17:16.473Z,14.40
2023-05-24T22:19:44.439Z,14.38
2023-05-24T22:22:12.543Z,14.36
2023-05-24T22:24:40.889Z,14.36
2023-05-24T22:27:13.602Z,14.36
2023-05-24T22:29:41.765Z,14.35
2023-05-24T22:32:09.782Z,14.35
2023-05-24T22:34:37.838Z,14.34
2023-05-24T22:37:06.830Z,14.34
2023-05-24T22:39:34.893Z,14.32
2023-05-24T22:42:03.104Z,14.31
2023-05-24T22:44:31.113Z,14.31
2023-05-24T22:47:02.091Z,14.30
2023-05-24T22:49:34.114Z,14.30
2023-05-24T22:52:02.391Z,14.29
2023-05-24T22:54:30.254Z,14.29
2023-05-24T22:56:58.181Z,14.28
2023-05-24T22:59:26.232Z,14.27
2023-05-24T23:01:54.200Z,14.26
2023-05-24T23:04:22.356Z,14.26
2023-05-24T23:06:53.190Z,14.25
2023-05-24T23:09:29.471Z,14.25
2023-05-24T23:11:58.496Z,14.24
2023-05-24T23:14:30.358Z,14.24
2023-05-24T23:17:02.520Z,14.22
2023-05-24T23:19:31.418Z,14.20
2023-05-24T23:21:59.279Z,14.19
2023-05-24T23:24:27.183Z,14.18
2023-05-24T23:26:56.043Z,14.17
2023-05-24T23:29:24.082Z,14.17
2023-05-24T23:31:52.256Z,14.16
2023-05-24T23:34:20.237Z,14.15
2023-05-24T23:36:48.147Z,14.14
2023-05-24T23:39:16.384Z,14.14
2023-05-24T23:41:44.616Z,14.13
2023-05-24T23:44:12.480Z,14.13
2023-05-24T23:46:42.044Z,14.11
2023-05-24T23:49:09.953Z,14.11
2023-05-24T23:51:38.011Z,14.09
2023-05-24T23:54:06.092Z,14.08
2023-05-24T23:56:34.039Z,14.07
2023-05-24T23:59:02.682Z,14.07
